sensor_id;sensor_type;location;lat;lon;timestamp;P1;durP1;ratioP1;P2;durP2;ratioP2
55210;SDS011;41082;52.822;6.666;2023-04-25T00:00:18;17.30;;;2.33;;
55210;SDS011;41082;52.822;6.666;2023-04-25T00:02:44;22.50;;;3.35;;
55210;SDS011;41082;52.822;6.666;2023-04-25T00:05:11;20.30;;;2.95;;
55210;SDS011;41082;52.822;6.666;2023-04-25T00:07:37;16.92;;;3.05;;
55210;SDS011;41082;52.822;6.666;2023-04-25T00:10:03;14.73;;;3.22;;
55210;SDS011;41082;52.822;6.666;2023-04-25T00:12:30;22.30;;;3.20;;
55210;SDS011;41082;52.822;6.666;2023-04-25T00:14:55;15.63;;;2.65;;
55210;SDS011;41082;52.822;6.666;2023-04-25T00:17:24;14.07;;;2.97;;
55210;SDS011;41082;52.822;6.666;2023-04-25T00:19:51;25.08;;;4.70;;
55210;SDS011;41082;52.822;6.666;2023-04-25T00:22:17;20.30;;;2.58;;
55210;SDS011;41082;52.822;6.666;2023-04-25T00:24:43;21.25;;;2.50;;
55210;SDS011;41082;52.822;6.666;2023-04-25T00:27:09;14.38;;;2.60;;
55210;SDS011;41082;52.822;6.666;2023-04-25T00:29:34;19.60;;;2.40;;
55210;SDS011;41082;52.822;6.666;2023-04-25T00:32:00;16.65;;;2.40;;
55210;SDS011;41082;52.822;6.666;2023-04-25T00:34:26;19.85;;;4.00;;
55210;SDS011;41082;52.822;6.666;2023-04-25T00:36:52;19.25;;;2.92;;
55210;SDS011;41082;52.822;6.666;2023-04-25T00:39:17;19.48;;;2.45;;
55210;SDS011;41082;52.822;6.666;2023-04-25T00:41:43;22.23;;;2.97;;
55210;SDS011;41082;52.822;6.666;2023-04-25T00:44:10;22.02;;;3.15;;
55210;SDS011;41082;52.822;6.666;2023-04-25T00:46:38;16.90;;;3.42;;
55210;SDS011;41082;52.822;6.666;2023-04-25T00:49:04;18.38;;;3.08;;
55210;SDS011;41082;52.822;6.666;2023-04-25T00:51:30;13.63;;;2.78;;
55210;SDS011;41082;52.822;6.666;2023-04-25T00:53:57;18.33;;;2.70;;
55210;SDS011;41082;52.822;6.666;2023-04-25T00:56:24;15.40;;;2.30;;
55210;SDS011;41082;52.822;6.666;2023-04-25T00:58:51;14.45;;;2.35;;
55210;SDS011;41082;52.822;6.666;2023-04-25T01:01:21;16.98;;;3.72;;
55210;SDS011;41082;52.822;6.666;2023-04-25T01:03:47;19.85;;;3.22;;
55210;SDS011;41082;52.822;6.666;2023-04-25T01:06:14;16.75;;;2.08;;
55210;SDS011;41082;52.822;6.666;2023-04-25T01:08:41;14.77;;;3.17;;
55210;SDS011;41082;52.822;6.666;2023-04-25T01:11:06;17.92;;;2.25;;
55210;SDS011;41082;52.822;6.666;2023-04-25T01:13:32;19.67;;;2.22;;
55210;SDS011;41082;52.822;6.666;2023-04-25T01:15:59;15.82;;;2.47;;
55210;SDS011;41082;52.822;6.666;2023-04-25T01:18:25;13.63;;;2.47;;
55210;SDS011;41082;52.822;6.666;2023-04-25T01:20:51;16.58;;;2.08;;
55210;SDS011;41082;52.822;6.666;2023-04-25T01:23:18;12.93;;;2.05;;
55210;SDS011;41082;52.822;6.666;2023-04-25T01:25:44;13.32;;;2.10;;
55210;SDS011;41082;52.822;6.666;2023-04-25T01:28:10;11.60;;;2.08;;
55210;SDS011;41082;52.822;6.666;2023-04-25T01:30:36;13.60;;;2.00;;
55210;SDS011;41082;52.822;6.666;2023-04-25T01:33:03;12.85;;;2.00;;
55210;SDS011;41082;52.822;6.666;2023-04-25T01:35:30;17.58;;;2.33;;
55210;SDS011;41082;52.822;6.666;2023-04-25T01:37:56;21.35;;;2.95;;
55210;SDS011;41082;52.822;6.666;2023-04-25T01:40:22;13.77;;;3.05;;
55210;SDS011;41082;52.822;6.666;2023-04-25T01:42:49;19.63;;;2.78;;
55210;SDS011;41082;52.822;6.666;2023-04-25T01:45:15;16.92;;;2.40;;
55210;SDS011;41082;52.822;6.666;2023-04-25T01:47:42;17.95;;;2.95;;
55210;SDS011;41082;52.822;6.666;2023-04-25T01:50:08;14.98;;;2.80;;
55210;SDS011;41082;52.822;6.666;2023-04-25T01:52:36;11.98;;;2.70;;
55210;SDS011;41082;52.822;6.666;2023-04-25T01:55:01;17.67;;;2.55;;
55210;SDS011;41082;52.822;6.666;2023-04-25T01:57:27;15.32;;;2.25;;
55210;SDS011;41082;52.822;6.666;2023-04-25T01:59:54;19.85;;;3.70;;
55210;SDS011;41082;52.822;6.666;2023-04-25T02:02:23;18.70;;;3.03;;
55210;SDS011;41082;52.822;6.666;2023-04-25T02:04:49;18.88;;;2.72;;
55210;SDS011;41082;52.822;6.666;2023-04-25T02:07:14;15.50;;;2.88;;
55210;SDS011;41082;52.822;6.666;2023-04-25T02:09:40;14.90;;;2.63;;
55210;SDS011;41082;52.822;6.666;2023-04-25T02:12:07;15.85;;;2.47;;
55210;SDS011;41082;52.822;6.666;2023-04-25T02:14:34;17.90;;;3.30;;
55210;SDS011;41082;52.822;6.666;2023-04-25T02:16:59;16.45;;;2.67;;
55210;SDS011;41082;52.822;6.666;2023-04-25T02:19:25;13.18;;;2.45;;
55210;SDS011;41082;52.822;6.666;2023-04-25T02:21:50;17.92;;;2.08;;
55210;SDS011;41082;52.822;6.666;2023-04-25T02:24:16;19.23;;;3.53;;
55210;SDS011;41082;52.822;6.666;2023-04-25T02:26:41;17.85;;;3.47;;
55210;SDS011;41082;52.822;6.666;2023-04-25T02:29:07;13.02;;;1.98;;
55210;SDS011;41082;52.822;6.666;2023-04-25T02:31:34;14.48;;;2.33;;
55210;SDS011;41082;52.822;6.666;2023-04-25T02:33:59;12.90;;;2.03;;
55210;SDS011;41082;52.822;6.666;2023-04-25T02:36:25;20.73;;;2.33;;
55210;SDS011;41082;52.822;6.666;2023-04-25T02:38:51;19.60;;;2.25;;
55210;SDS011;41082;52.822;6.666;2023-04-25T02:41:17;15.10;;;2.47;;
55210;SDS011;41082;52.822;6.666;2023-04-25T02:43:42;17.73;;;2.10;;
55210;SDS011;41082;52.822;6.666;2023-04-25T02:46:08;11.98;;;2.40;;
55210;SDS011;41082;52.822;6.666;2023-04-25T02:48:33;19.40;;;1.88;;
55210;SDS011;41082;52.822;6.666;2023-04-25T02:50:59;16.88;;;2.38;;
55210;SDS011;41082;52.822;6.666;2023-04-25T02:53:24;16.25;;;2.60;;
55210;SDS011;41082;52.822;6.666;2023-04-25T02:55:50;13.25;;;2.50;;
55210;SDS011;41082;52.822;6.666;2023-04-25T02:58:17;14.98;;;2.08;;
55210;SDS011;41082;52.822;6.666;2023-04-25T03:00:43;11.50;;;1.92;;
55210;SDS011;41082;52.822;6.666;2023-04-25T03:03:08;18.15;;;1.83;;
55210;SDS011;41082;52.822;6.666;2023-04-25T03:05:34;20.30;;;2.53;;
55210;SDS011;41082;52.822;6.666;2023-04-25T03:08:00;16.02;;;2.00;;
55210;SDS011;41082;52.822;6.666;2023-04-25T03:10:26;14.50;;;1.73;;
55210;SDS011;41082;52.822;6.666;2023-04-25T03:12:51;12.20;;;1.77;;
55210;SDS011;41082;52.822;6.666;2023-04-25T03:15:17;11.73;;;1.45;;
55210;SDS011;41082;52.822;6.666;2023-04-25T03:17:43;11.50;;;1.42;;
55210;SDS011;41082;52.822;6.666;2023-04-25T03:20:09;13.13;;;1.50;;
55210;SDS011;41082;52.822;6.666;2023-04-25T03:22:35;13.82;;;1.25;;
55210;SDS011;41082;52.822;6.666;2023-04-25T03:25:01;15.65;;;1.63;;
55210;SDS011;41082;52.822;6.666;2023-04-25T03:27:27;13.82;;;1.40;;
55210;SDS011;41082;52.822;6.666;2023-04-25T03:29:52;13.90;;;1.60;;
55210;SDS011;41082;52.822;6.666;2023-04-25T03:32:18;12.70;;;1.42;;
55210;SDS011;41082;52.822;6.666;2023-04-25T03:34:43;14.23;;;1.45;;
55210;SDS011;41082;52.822;6.666;2023-04-25T03:37:09;11.75;;;1.52;;
55210;SDS011;41082;52.822;6.666;2023-04-25T03:39:34;17.83;;;1.67;;
55210;SDS011;41082;52.822;6.666;2023-04-25T03:42:00;17.15;;;2.15;;
55210;SDS011;41082;52.822;6.666;2023-04-25T03:44:26;16.48;;;1.73;;
55210;SDS011;41082;52.822;6.666;2023-04-25T03:46:51;16.02;;;1.80;;
55210;SDS011;41082;52.822;6.666;2023-04-25T03:49:17;10.60;;;1.60;;
55210;SDS011;41082;52.822;6.666;2023-04-25T03:51:42;10.70;;;1.40;;
55210;SDS011;41082;52.822;6.666;2023-04-25T03:54:08;6.63;;;1.08;;
55210;SDS011;41082;52.822;6.666;2023-04-25T03:56:33;10.40;;;1.20;;
55210;SDS011;41082;52.822;6.666;2023-04-25T03:58:59;9.45;;;2.03;;
55210;SDS011;41082;52.822;6.666;2023-04-25T04:01:25;7.40;;;0.85;;
55210;SDS011;41082;52.822;6.666;2023-04-25T04:03:51;2.20;;;0.40;;
55210;SDS011;41082;52.822;6.666;2023-04-25T04:06:16;6.32;;;0.55;;
55210;SDS011;41082;52.822;6.666;2023-04-25T04:08:42;11.48;;;0.63;;
55210;SDS011;41082;52.822;6.666;2023-04-25T04:11:08;6.13;;;0.57;;
55210;SDS011;41082;52.822;6.666;2023-04-25T04:13:33;7.45;;;0.57;;
55210;SDS011;41082;52.822;6.666;2023-04-25T04:15:59;7.70;;;0.75;;
55210;SDS011;41082;52.822;6.666;2023-04-25T04:18:24;8.18;;;0.50;;
55210;SDS011;41082;52.822;6.666;2023-04-25T04:20:50;7.68;;;0.30;;
55210;SDS011;41082;52.822;6.666;2023-04-25T04:23:16;5.63;;;0.50;;
55210;SDS011;41082;52.822;6.666;2023-04-25T04:25:41;6.75;;;0.43;;
55210;SDS011;41082;52.822;6.666;2023-04-25T04:28:07;8.32;;;0.68;;
55210;SDS011;41082;52.822;6.666;2023-04-25T04:30:33;3.72;;;0.47;;
55210;SDS011;41082;52.822;6.666;2023-04-25T04:33:01;7.13;;;0.45;;
55210;SDS011;41082;52.822;6.666;2023-04-25T04:35:27;5.78;;;0.50;;
55210;SDS011;41082;52.822;6.666;2023-04-25T04:37:53;5.32;;;0.55;;
55210;SDS011;41082;52.822;6.666;2023-04-25T04:40:19;6.05;;;0.50;;
55210;SDS011;41082;52.822;6.666;2023-04-25T04:42:45;6.93;;;0.50;;
55210;SDS011;41082;52.822;6.666;2023-04-25T04:45:11;6.18;;;0.45;;
55210;SDS011;41082;52.822;6.666;2023-04-25T04:47:37;4.30;;;0.77;;
55210;SDS011;41082;52.822;6.666;2023-04-25T04:50:04;6.97;;;0.50;;
55210;SDS011;41082;52.822;6.666;2023-04-25T04:52:33;5.40;;;0.40;;
55210;SDS011;41082;52.822;6.666;2023-04-25T04:54:59;7.38;;;0.52;;
55210;SDS011;41082;52.822;6.666;2023-04-25T04:57:25;6.03;;;0.70;;
55210;SDS011;41082;52.822;6.666;2023-04-25T04:59:51;6.05;;;0.70;;
55210;SDS011;41082;52.822;6.666;2023-04-25T05:02:17;11.40;;;0.70;;
55210;SDS011;41082;52.822;6.666;2023-04-25T05:04:42;8.60;;;1.02;;
55210;SDS011;41082;52.822;6.666;2023-04-25T05:07:08;6.68;;;0.65;;
55210;SDS011;41082;52.822;6.666;2023-04-25T05:09:34;8.02;;;0.63;;
55210;SDS011;41082;52.822;6.666;2023-04-25T05:11:59;6.32;;;0.57;;
55210;SDS011;41082;52.822;6.666;2023-04-25T05:14:26;5.68;;;0.60;;
55210;SDS011;41082;52.822;6.666;2023-04-25T05:16:51;7.25;;;1.08;;
55210;SDS011;41082;52.822;6.666;2023-04-25T05:19:17;7.03;;;0.95;;
55210;SDS011;41082;52.822;6.666;2023-04-25T05:21:43;10.27;;;0.98;;
55210;SDS011;41082;52.822;6.666;2023-04-25T05:24:08;10.98;;;0.80;;
55210;SDS011;41082;52.822;6.666;2023-04-25T05:26:34;7.03;;;0.70;;
55210;SDS011;41082;52.822;6.666;2023-04-25T05:29:00;5.88;;;0.73;;
55210;SDS011;41082;52.822;6.666;2023-04-25T05:31:25;10.27;;;0.82;;
55210;SDS011;41082;52.822;6.666;2023-04-25T05:33:51;6.68;;;2.22;;
55210;SDS011;41082;52.822;6.666;2023-04-25T05:36:20;10.65;;;1.67;;
55210;SDS011;41082;52.822;6.666;2023-04-25T05:38:46;9.88;;;1.17;;
55210;SDS011;41082;52.822;6.666;2023-04-25T05:41:11;13.50;;;1.10;;
55210;SDS011;41082;52.822;6.666;2023-04-25T05:43:37;12.30;;;1.30;;
55210;SDS011;41082;52.822;6.666;2023-04-25T05:46:03;8.77;;;1.52;;
55210;SDS011;41082;52.822;6.666;2023-04-25T05:48:28;10.63;;;1.08;;
55210;SDS011;41082;52.822;6.666;2023-04-25T05:50:55;5.68;;;1.00;;
55210;SDS011;41082;52.822;6.666;2023-04-25T05:53:20;8.98;;;1.00;;
55210;SDS011;41082;52.822;6.666;2023-04-25T05:55:47;9.45;;;1.02;;
55210;SDS011;41082;52.822;6.666;2023-04-25T05:58:12;11.68;;;0.73;;
55210;SDS011;41082;52.822;6.666;2023-04-25T06:00:38;8.88;;;0.65;;
55210;SDS011;41082;52.822;6.666;2023-04-25T06:03:04;13.25;;;1.35;;
55210;SDS011;41082;52.822;6.666;2023-04-25T06:05:29;12.65;;;0.90;;
55210;SDS011;41082;52.822;6.666;2023-04-25T06:07:55;11.80;;;1.95;;
55210;SDS011;41082;52.822;6.666;2023-04-25T06:10:20;7.70;;;0.80;;
55210;SDS011;41082;52.822;6.666;2023-04-25T06:12:46;4.75;;;0.60;;
55210;SDS011;41082;52.822;6.666;2023-04-25T06:15:12;8.55;;;1.27;;
55210;SDS011;41082;52.822;6.666;2023-04-25T06:17:37;10.25;;;1.33;;
55210;SDS011;41082;52.822;6.666;2023-04-25T06:20:03;9.02;;;1.02;;
55210;SDS011;41082;52.822;6.666;2023-04-25T06:22:29;8.25;;;0.85;;
55210;SDS011;41082;52.822;6.666;2023-04-25T06:24:55;6.72;;;1.02;;
55210;SDS011;41082;52.822;6.666;2023-04-25T06:27:23;9.90;;;0.60;;
55210;SDS011;41082;52.822;6.666;2023-04-25T06:29:49;11.85;;;1.30;;
55210;SDS011;41082;52.822;6.666;2023-04-25T06:32:15;9.95;;;0.73;;
55210;SDS011;41082;52.822;6.666;2023-04-25T06:34:43;10.93;;;0.73;;
55210;SDS011;41082;52.822;6.666;2023-04-25T06:37:08;12.45;;;0.80;;
55210;SDS011;41082;52.822;6.666;2023-04-25T06:39:34;16.77;;;1.15;;
55210;SDS011;41082;52.822;6.666;2023-04-25T06:42:00;10.30;;;1.10;;
55210;SDS011;41082;52.822;6.666;2023-04-25T06:44:25;7.00;;;0.65;;
55210;SDS011;41082;52.822;6.666;2023-04-25T06:46:51;11.65;;;0.75;;
55210;SDS011;41082;52.822;6.666;2023-04-25T06:49:17;9.05;;;1.33;;
55210;SDS011;41082;52.822;6.666;2023-04-25T06:51:42;9.85;;;0.95;;
55210;SDS011;41082;52.822;6.666;2023-04-25T06:54:08;12.60;;;1.55;;
55210;SDS011;41082;52.822;6.666;2023-04-25T06:56:33;11.57;;;1.15;;
55210;SDS011;41082;52.822;6.666;2023-04-25T06:58:59;13.93;;;1.08;;
55210;SDS011;41082;52.822;6.666;2023-04-25T07:01:25;9.10;;;0.80;;
55210;SDS011;41082;52.822;6.666;2023-04-25T07:03:51;8.15;;;0.80;;
55210;SDS011;41082;52.822;6.666;2023-04-25T07:06:16;10.93;;;0.80;;
55210;SDS011;41082;52.822;6.666;2023-04-25T07:08:42;3.17;;;0.40;;
55210;SDS011;41082;52.822;6.666;2023-04-25T07:11:08;4.28;;;0.40;;
55210;SDS011;41082;52.822;6.666;2023-04-25T07:13:34;6.18;;;0.70;;
55210;SDS011;41082;52.822;6.666;2023-04-25T07:15:59;4.63;;;0.90;;
55210;SDS011;41082;52.822;6.666;2023-04-25T07:18:25;6.93;;;0.75;;
55210;SDS011;41082;52.822;6.666;2023-04-25T07:20:50;11.57;;;0.80;;
55210;SDS011;41082;52.822;6.666;2023-04-25T07:23:16;6.57;;;0.63;;
55210;SDS011;41082;52.822;6.666;2023-04-25T07:25:42;8.70;;;0.35;;
55210;SDS011;41082;52.822;6.666;2023-04-25T07:28:07;6.22;;;0.50;;
55210;SDS011;41082;52.822;6.666;2023-04-25T07:30:33;7.53;;;0.43;;
55210;SDS011;41082;52.822;6.666;2023-04-25T07:33:00;7.75;;;0.85;;
55210;SDS011;41082;52.822;6.666;2023-04-25T07:35:25;7.03;;;0.75;;
55210;SDS011;41082;52.822;6.666;2023-04-25T07:37:51;7.30;;;0.68;;
55210;SDS011;41082;52.822;6.666;2023-04-25T07:40:17;6.28;;;0.32;;
55210;SDS011;41082;52.822;6.666;2023-04-25T07:42:42;10.15;;;1.33;;
55210;SDS011;41082;52.822;6.666;2023-04-25T07:45:08;7.75;;;0.63;;
55210;SDS011;41082;52.822;6.666;2023-04-25T07:47:34;7.88;;;0.60;;
55210;SDS011;41082;52.822;6.666;2023-04-25T07:50:00;6.55;;;0.65;;
55210;SDS011;41082;52.822;6.666;2023-04-25T07:52:26;7.60;;;0.93;;
55210;SDS011;41082;52.822;6.666;2023-04-25T07:54:51;4.85;;;0.40;;
55210;SDS011;41082;52.822;6.666;2023-04-25T07:57:17;4.72;;;0.50;;
55210;SDS011;41082;52.822;6.666;2023-04-25T07:59:44;6.85;;;0.55;;
55210;SDS011;41082;52.822;6.666;2023-04-25T08:02:10;7.32;;;0.40;;
55210;SDS011;41082;52.822;6.666;2023-04-25T08:04:35;9.40;;;0.60;;
55210;SDS011;41082;52.822;6.666;2023-04-25T08:07:01;10.10;;;0.60;;
55210;SDS011;41082;52.822;6.666;2023-04-25T08:09:26;6.15;;;0.40;;
55210;SDS011;41082;52.822;6.666;2023-04-25T08:11:52;6.70;;;0.77;;
55210;SDS011;41082;52.822;6.666;2023-04-25T08:14:18;11.30;;;0.60;;
55210;SDS011;41082;52.822;6.666;2023-04-25T08:16:43;4.00;;;0.30;;
55210;SDS011;41082;52.822;6.666;2023-04-25T08:19:09;3.17;;;0.25;;
55210;SDS011;41082;52.822;6.666;2023-04-25T08:21:35;4.53;;;0.40;;
55210;SDS011;41082;52.822;6.666;2023-04-25T08:24:01;6.90;;;0.60;;
55210;SDS011;41082;52.822;6.666;2023-04-25T08:26:27;6.47;;;0.63;;
55210;SDS011;41082;52.822;6.666;2023-04-25T08:28:53;2.67;;;0.22;;
55210;SDS011;41082;52.822;6.666;2023-04-25T08:31:19;4.15;;;0.20;;
55210;SDS011;41082;52.822;6.666;2023-04-25T08:33:45;4.82;;;0.30;;
55210;SDS011;41082;52.822;6.666;2023-04-25T08:36:11;3.83;;;0.30;;
55210;SDS011;41082;52.822;6.666;2023-04-25T08:38:36;4.97;;;0.30;;
55210;SDS011;41082;52.822;6.666;2023-04-25T08:41:02;5.20;;;0.32;;
55210;SDS011;41082;52.822;6.666;2023-04-25T08:43:28;6.53;;;0.40;;
55210;SDS011;41082;52.822;6.666;2023-04-25T08:45:58;6.47;;;0.50;;
55210;SDS011;41082;52.822;6.666;2023-04-25T08:48:26;6.65;;;0.43;;
55210;SDS011;41082;52.822;6.666;2023-04-25T08:50:53;8.88;;;0.82;;
55210;SDS011;41082;52.822;6.666;2023-04-25T08:53:32;7.35;;;0.80;;
55210;SDS011;41082;52.822;6.666;2023-04-25T08:55:59;5.10;;;0.43;;
55210;SDS011;41082;52.822;6.666;2023-04-25T08:58:28;6.30;;;1.00;;
55210;SDS011;41082;52.822;6.666;2023-04-25T09:00:54;5.35;;;0.35;;
55210;SDS011;41082;52.822;6.666;2023-04-25T09:03:20;6.20;;;0.30;;
55210;SDS011;41082;52.822;6.666;2023-04-25T09:05:45;5.53;;;0.35;;
55210;SDS011;41082;52.822;6.666;2023-04-25T09:08:11;4.18;;;0.43;;
55210;SDS011;41082;52.822;6.666;2023-04-25T09:10:37;8.35;;;0.40;;
55210;SDS011;41082;52.822;6.666;2023-04-25T09:15:59;6.47;;;0.63;;
55210;SDS011;41082;52.822;6.666;2023-04-25T09:18:30;7.95;;;1.48;;
55210;SDS011;41082;52.822;6.666;2023-04-25T09:20:58;5.97;;;0.50;;
55210;SDS011;41082;52.822;6.666;2023-04-25T09:23:47;3.97;;;0.40;;
55210;SDS011;41082;52.822;6.666;2023-04-25T09:26:17;2.75;;;0.30;;
55210;SDS011;41082;52.822;6.666;2023-04-25T09:28:44;7.20;;;0.30;;
55210;SDS011;41082;52.822;6.666;2023-04-25T09:31:11;5.13;;;0.57;;
55210;SDS011;41082;52.822;6.666;2023-04-25T09:33:37;3.30;;;0.15;;
55210;SDS011;41082;52.822;6.666;2023-04-25T09:36:03;2.60;;;0.70;;
55210;SDS011;41082;52.822;6.666;2023-04-25T09:38:54;1.42;;;0.10;;
55210;SDS011;41082;52.822;6.666;2023-04-25T09:41:22;4.47;;;0.40;;
55210;SDS011;41082;52.822;6.666;2023-04-25T09:43:49;3.72;;;0.47;;
55210;SDS011;41082;52.822;6.666;2023-04-25T09:46:15;3.03;;;0.30;;
55210;SDS011;41082;52.822;6.666;2023-04-25T09:48:52;1.50;;;0.30;;
55210;SDS011;41082;52.822;6.666;2023-04-25T09:51:18;4.28;;;0.20;;
55210;SDS011;41082;52.822;6.666;2023-04-25T09:53:45;3.25;;;0.50;;
55210;SDS011;41082;52.822;6.666;2023-04-25T09:56:14;5.10;;;0.22;;
55210;SDS011;41082;52.822;6.666;2023-04-25T09:58:41;2.70;;;0.20;;
55210;SDS011;41082;52.822;6.666;2023-04-25T10:01:07;5.13;;;0.32;;
55210;SDS011;41082;52.822;6.666;2023-04-25T10:03:37;4.32;;;0.45;;
55210;SDS011;41082;52.822;6.666;2023-04-25T10:06:08;5.53;;;0.40;;
55210;SDS011;41082;52.822;6.666;2023-04-25T10:08:37;5.40;;;0.40;;
55210;SDS011;41082;52.822;6.666;2023-04-25T10:11:07;4.85;;;0.30;;
55210;SDS011;41082;52.822;6.666;2023-04-25T10:13:33;6.10;;;0.52;;
55210;SDS011;41082;52.822;6.666;2023-04-25T10:16:01;4.70;;;0.52;;
55210;SDS011;41082;52.822;6.666;2023-04-25T10:18:28;3.55;;;0.40;;
55210;SDS011;41082;52.822;6.666;2023-04-25T10:20:59;3.90;;;0.40;;
55210;SDS011;41082;52.822;6.666;2023-04-25T10:23:28;1.52;;;0.10;;
55210;SDS011;41082;52.822;6.666;2023-04-25T10:25:55;2.35;;;0.20;;
55210;SDS011;41082;52.822;6.666;2023-04-25T10:28:21;4.40;;;0.25;;
55210;SDS011;41082;52.822;6.666;2023-04-25T10:30:59;4.22;;;0.73;;
55210;SDS011;41082;52.822;6.666;2023-04-25T10:33:29;4.95;;;0.20;;
55210;SDS011;41082;52.822;6.666;2023-04-25T10:36:08;4.35;;;0.28;;
55210;SDS011;41082;52.822;6.666;2023-04-25T10:38:34;5.70;;;0.40;;
55210;SDS011;41082;52.822;6.666;2023-04-25T10:41:03;4.75;;;0.40;;
55210;SDS011;41082;52.822;6.666;2023-04-25T10:43:37;4.43;;;0.40;;
55210;SDS011;41082;52.822;6.666;2023-04-25T10:46:23;2.38;;;0.13;;
55210;SDS011;41082;52.822;6.666;2023-04-25T10:48:56;4.72;;;0.50;;
55210;SDS011;41082;52.822;6.666;2023-04-25T10:56:37;4.95;;;0.50;;
55210;SDS011;41082;52.822;6.666;2023-04-25T11:01:45;6.80;;;0.50;;
55210;SDS011;41082;52.822;6.666;2023-04-25T11:09:40;6.97;;;0.40;;
55210;SDS011;41082;52.822;6.666;2023-04-25T11:12:09;8.27;;;0.80;;
55210;SDS011;41082;52.822;6.666;2023-04-25T11:14:36;9.98;;;0.40;;
55210;SDS011;41082;52.822;6.666;2023-04-25T11:17:02;7.40;;;0.68;;
55210;SDS011;41082;52.822;6.666;2023-04-25T11:19:28;5.28;;;1.15;;
55210;SDS011;41082;52.822;6.666;2023-04-25T11:21:57;7.85;;;0.47;;
55210;SDS011;41082;52.822;6.666;2023-04-25T11:24:27;7.60;;;0.60;;
55210;SDS011;41082;52.822;6.666;2023-04-25T11:26:54;7.93;;;0.70;;
55210;SDS011;41082;52.822;6.666;2023-04-25T11:29:23;6.60;;;0.80;;
55210;SDS011;41082;52.822;6.666;2023-04-25T11:31:52;7.60;;;0.60;;
55210;SDS011;41082;52.822;6.666;2023-04-25T11:34:18;7.53;;;0.60;;
55210;SDS011;41082;52.822;6.666;2023-04-25T11:36:44;5.25;;;0.95;;
55210;SDS011;41082;52.822;6.666;2023-04-25T11:39:10;7.40;;;0.80;;
55210;SDS011;41082;52.822;6.666;2023-04-25T11:41:37;6.50;;;0.63;;
55210;SDS011;41082;52.822;6.666;2023-04-25T11:44:03;4.35;;;0.25;;
55210;SDS011;41082;52.822;6.666;2023-04-25T11:46:30;3.20;;;0.20;;
55210;SDS011;41082;52.822;6.666;2023-04-25T11:48:58;4.15;;;0.30;;
55210;SDS011;41082;52.822;6.666;2023-04-25T11:51:24;4.18;;;0.30;;
55210;SDS011;41082;52.822;6.666;2023-04-25T11:53:51;5.72;;;0.30;;
55210;SDS011;41082;52.822;6.666;2023-04-25T11:56:16;8.48;;;1.35;;
55210;SDS011;41082;52.822;6.666;2023-04-25T11:58:55;4.95;;;0.30;;
55210;SDS011;41082;52.822;6.666;2023-04-25T12:02:09;5.57;;;0.40;;
55210;SDS011;41082;52.822;6.666;2023-04-25T12:06:41;3.05;;;0.43;;
55210;SDS011;41082;52.822;6.666;2023-04-25T12:09:09;4.50;;;0.30;;
55210;SDS011;41082;52.822;6.666;2023-04-25T12:11:46;5.15;;;0.40;;
55210;SDS011;41082;52.822;6.666;2023-04-25T12:14:24;4.18;;;0.22;;
55210;SDS011;41082;52.822;6.666;2023-04-25T12:16:52;3.88;;;0.30;;
55210;SDS011;41082;52.822;6.666;2023-04-25T12:19:20;6.97;;;0.40;;
55210;SDS011;41082;52.822;6.666;2023-04-25T12:21:46;6.47;;;0.28;;
55210;SDS011;41082;52.822;6.666;2023-04-25T12:24:14;5.45;;;0.45;;
55210;SDS011;41082;52.822;6.666;2023-04-25T12:26:47;5.88;;;0.38;;
55210;SDS011;41082;52.822;6.666;2023-04-25T12:29:16;4.88;;;0.45;;
55210;SDS011;41082;52.822;6.666;2023-04-25T12:31:49;3.88;;;0.40;;
55210;SDS011;41082;52.822;6.666;2023-04-25T12:34:16;5.78;;;0.40;;
55210;SDS011;41082;52.822;6.666;2023-04-25T12:36:43;5.57;;;0.40;;
55210;SDS011;41082;52.822;6.666;2023-04-25T12:39:08;2.55;;;0.22;;
55210;SDS011;41082;52.822;6.666;2023-04-25T12:41:40;4.10;;;0.40;;
55210;SDS011;41082;52.822;6.666;2023-04-25T12:44:06;3.47;;;0.30;;
55210;SDS011;41082;52.822;6.666;2023-04-25T12:46:31;5.20;;;0.38;;
55210;SDS011;41082;52.822;6.666;2023-04-25T12:48:57;4.70;;;0.60;;
55210;SDS011;41082;52.822;6.666;2023-04-25T12:51:22;5.28;;;0.52;;
55210;SDS011;41082;52.822;6.666;2023-04-25T12:53:50;2.70;;;0.20;;
55210;SDS011;41082;52.822;6.666;2023-04-25T12:56:16;2.17;;;0.30;;
55210;SDS011;41082;52.822;6.666;2023-04-25T12:58:42;4.00;;;0.47;;
55210;SDS011;41082;52.822;6.666;2023-04-25T13:01:09;4.57;;;0.40;;
55210;SDS011;41082;52.822;6.666;2023-04-25T13:03:34;6.40;;;0.80;;
55210;SDS011;41082;52.822;6.666;2023-04-25T13:06:00;4.22;;;0.40;;
55210;SDS011;41082;52.822;6.666;2023-04-25T13:08:26;6.22;;;0.60;;
55210;SDS011;41082;52.822;6.666;2023-04-25T13:10:51;4.05;;;0.35;;
55210;SDS011;41082;52.822;6.666;2023-04-25T13:13:17;7.70;;;0.45;;
55210;SDS011;41082;52.822;6.666;2023-04-25T13:15:43;5.43;;;0.40;;
55210;SDS011;41082;52.822;6.666;2023-04-25T13:18:08;6.18;;;0.93;;
55210;SDS011;41082;52.822;6.666;2023-04-25T13:20:34;5.40;;;0.70;;
55210;SDS011;41082;52.822;6.666;2023-04-25T13:23:00;4.80;;;0.35;;
55210;SDS011;41082;52.822;6.666;2023-04-25T13:25:25;3.38;;;0.30;;
55210;SDS011;41082;52.822;6.666;2023-04-25T13:27:51;4.28;;;0.40;;
55210;SDS011;41082;52.822;6.666;2023-04-25T13:30:17;6.63;;;1.10;;
55210;SDS011;41082;52.822;6.666;2023-04-25T13:32:42;5.47;;;0.47;;
55210;SDS011;41082;52.822;6.666;2023-04-25T13:35:09;2.72;;;0.35;;
55210;SDS011;41082;52.822;6.666;2023-04-25T13:37:37;4.75;;;0.30;;
55210;SDS011;41082;52.822;6.666;2023-04-25T13:40:03;5.63;;;0.40;;
55210;SDS011;41082;52.822;6.666;2023-04-25T13:42:32;5.50;;;1.08;;
55210;SDS011;41082;52.822;6.666;2023-04-25T13:44:58;6.30;;;0.65;;
55210;SDS011;41082;52.822;6.666;2023-04-25T13:47:25;5.45;;;1.27;;
55210;SDS011;41082;52.822;6.666;2023-04-25T13:49:51;9.63;;;0.50;;
55210;SDS011;41082;52.822;6.666;2023-04-25T13:52:16;6.07;;;0.68;;
55210;SDS011;41082;52.822;6.666;2023-04-25T13:54:43;5.93;;;1.02;;
55210;SDS011;41082;52.822;6.666;2023-04-25T13:57:09;3.72;;;0.40;;
55210;SDS011;41082;52.822;6.666;2023-04-25T13:59:36;5.78;;;0.60;;
55210;SDS011;41082;52.822;6.666;2023-04-25T14:02:02;4.78;;;0.50;;
55210;SDS011;41082;52.822;6.666;2023-04-25T14:04:27;6.70;;;0.30;;
55210;SDS011;41082;52.822;6.666;2023-04-25T14:06:53;4.65;;;0.30;;
55210;SDS011;41082;52.822;6.666;2023-04-25T14:09:19;7.93;;;0.70;;
55210;SDS011;41082;52.822;6.666;2023-04-25T14:11:45;4.72;;;0.57;;
55210;SDS011;41082;52.822;6.666;2023-04-25T14:14:11;4.30;;;0.57;;
55210;SDS011;41082;52.822;6.666;2023-04-25T14:16:38;4.45;;;0.52;;
55210;SDS011;41082;52.822;6.666;2023-04-25T14:19:04;4.22;;;0.47;;
55210;SDS011;41082;52.822;6.666;2023-04-25T14:21:29;3.88;;;0.40;;
55210;SDS011;41082;52.822;6.666;2023-04-25T14:23:57;2.78;;;0.30;;
55210;SDS011;41082;52.822;6.666;2023-04-25T14:26:23;3.67;;;0.25;;
55210;SDS011;41082;52.822;6.666;2023-04-25T14:28:48;4.38;;;0.30;;
55210;SDS011;41082;52.822;6.666;2023-04-25T14:31:14;4.28;;;0.30;;
55210;SDS011;41082;52.822;6.666;2023-04-25T14:33:40;5.20;;;0.40;;
55210;SDS011;41082;52.822;6.666;2023-04-25T14:36:07;4.88;;;0.20;;
55210;SDS011;41082;52.822;6.666;2023-04-25T14:38:33;3.70;;;0.28;;
55210;SDS011;41082;52.822;6.666;2023-04-25T14:40:58;3.90;;;0.40;;
55210;SDS011;41082;52.822;6.666;2023-04-25T14:43:24;6.30;;;0.50;;
55210;SDS011;41082;52.822;6.666;2023-04-25T14:45:50;5.47;;;0.57;;
55210;SDS011;41082;52.822;6.666;2023-04-25T14:48:15;4.50;;;0.47;;
55210;SDS011;41082;52.822;6.666;2023-04-25T14:50:44;5.78;;;0.70;;
55210;SDS011;41082;52.822;6.666;2023-04-25T14:53:10;4.50;;;0.50;;
55210;SDS011;41082;52.822;6.666;2023-04-25T14:55:36;3.83;;;0.40;;
55210;SDS011;41082;52.822;6.666;2023-04-25T14:58:01;7.95;;;0.55;;